TimeCST,TemperatureF,Dew PointF,Humidity,Sea Level PressureIn,VisibilityMPH,Wind Direction,Wind SpeedMPH,Gust SpeedMPH,PrecipitationIn,Events,Conditions,WindDirDegrees,DateUTC
12:15 AM,23.7,22.5,95,29.99,1.2,South,6.9,-,N/A,,Overcast,170,2014-01-10 06:15:00
12:35 AM,23.9,22.8,96,29.98,1.2,South,8.1,-,N/A,,Overcast,180,2014-01-10 06:35:00
12:55 AM,24.4,23.0,94,29.98,1.2,South,6.9,-,N/A,,Overcast,170,2014-01-10 06:55:00
1:15 AM,24.8,23.7,96,29.98,1.5,South,5.8,-,N/A,,Overcast,170,2014-01-10 07:15:00
1:35 AM,25.3,23.9,94,29.97,1.5,South,5.8,-,N/A,,Overcast,170,2014-01-10 07:35:00
1:55 AM,25.7,24.6,96,29.95,1.8,SSE,5.8,-,N/A,,Overcast,150,2014-01-10 07:55:00
2:15 AM,26.1,24.8,95,29.95,2.0,SSE,5.8,-,N/A,,Overcast,160,2014-01-10 08:15:00
2:35 AM,26.2,25.2,96,29.94,1.8,SSE,5.8,-,N/A,,Overcast,150,2014-01-10 08:35:00
2:55 AM,26.8,25.7,96,29.93,1.2,SSE,6.9,-,N/A,,Overcast,150,2014-01-10 08:55:00
3:15 AM,27.5,26.4,96,29.91,1.0,SSE,6.9,-,N/A,,Overcast,150,2014-01-10 09:15:00
3:35 AM,27.9,27.0,96,29.91,1.2,SSE,6.9,-,N/A,,Overcast,150,2014-01-10 09:35:00
3:55 AM,28.2,27.3,96,29.89,1.2,SSE,9.2,-,N/A,,Overcast,150,2014-01-10 09:55:00
4:15 AM,28.4,27.5,96,29.87,1.0,SE,6.9,-,N/A,,Overcast,140,2014-01-10 10:15:00
4:35 AM,28.8,27.9,96,29.86,1.2,SE,6.9,-,N/A,,Overcast,140,2014-01-10 10:35:00
4:55 AM,28.9,28.0,96,29.86,1.2,SE,6.9,-,N/A,,Overcast,140,2014-01-10 10:55:00
5:15 AM,29.1,28.4,97,29.85,1.2,SE,8.1,-,N/A,,Overcast,140,2014-01-10 11:15:00
5:35 AM,29.3,28.4,96,29.83,1.2,SE,9.2,-,N/A,,Overcast,140,2014-01-10 11:35:00
5:55 AM,29.5,28.8,97,29.82,1.0,SE,6.9,-,N/A,,Overcast,130,2014-01-10 11:55:00
6:15 AM,29.8,29.1,97,29.81,1.2,SE,8.1,-,N/A,,Overcast,140,2014-01-10 12:15:00
6:35 AM,30.2,29.5,97,29.81,1.8,SE,8.1,-,N/A,,Overcast,140,2014-01-10 12:35:00
6:55 AM,30.7,30.0,97,29.80,1.8,SE,6.9,-,N/A,,Overcast,140,2014-01-10 12:55:00
7:15 AM,31.1,30.2,96,29.79,2.5,SE,9.2,-,N/A,,Overcast,140,2014-01-10 13:15:00
7:35 AM,31.5,30.7,97,29.79,2.5,SE,9.2,-,N/A,,Overcast,140,2014-01-10 13:35:00
7:55 AM,31.6,30.9,97,29.78,2.5,SE,10.4,-,N/A,,Overcast,140,2014-01-10 13:55:00
8:15 AM,31.8,31.1,97,29.77,1.5,SE,10.4,-,N/A,,Overcast,130,2014-01-10 14:15:00
8:35 AM,32.0,31.1,96,29.76,1.8,SE,9.2,-,N/A,,Overcast,130,2014-01-10 14:35:00
8:55 AM,32.0,31.1,96,29.76,1.8,SE,8.1,-,N/A,,Overcast,130,2014-01-10 14:55:00
9:15 AM,32.0,31.3,97,29.75,1.0,SE,6.9,-,N/A,,Overcast,130,2014-01-10 15:15:00
9:35 AM,32.0,31.5,98,29.74,0.5,SE,9.2,-,N/A,Fog,Fog,130,2014-01-10 15:35:00
9:55 AM,32.0,31.6,99,29.74,0.2,SE,9.2,-,N/A,Fog,Fog,140,2014-01-10 15:55:00
10:15 AM,32.0,31.8,99,29.73,0.2,SE,9.2,-,N/A,Fog,Fog,140,2014-01-10 16:15:00
10:35 AM,32.2,32.0,99,29.71,0.5,SE,6.9,-,N/A,Fog,Fog,130,2014-01-10 16:35:00
10:55 AM,32.4,32.0,99,29.70,0.8,SE,6.9,-,N/A,,Overcast,130,2014-01-10 16:55:00
11:15 AM,32.4,32.0,99,29.68,1.0,SE,8.1,-,N/A,,Overcast,130,2014-01-10 17:15:00
11:35 AM,32.9,32.0,96,29.64,1.0,ESE,8.1,-,N/A,,Overcast,120,2014-01-10 17:35:00
11:55 AM,32.9,32.2,97,29.64,1.2,SE,9.2,-,N/A,,Overcast,130,2014-01-10 17:55:00
12:15 PM,32.9,32.2,97,29.63,1.5,SE,8.1,-,N/A,,Overcast,130,2014-01-10 18:15:00
12:35 PM,33.1,32.4,97,29.60,1.5,SE,5.8,-,N/A,,Overcast,130,2014-01-10 18:35:00
12:55 PM,33.3,32.5,97,29.57,1.5,SE,6.9,-,N/A,,Overcast,130,2014-01-10 18:55:00
1:15 PM,33.4,32.7,97,29.56,1.5,SE,6.9,-,N/A,,Overcast,140,2014-01-10 19:15:00
1:35 PM,33.4,32.7,97,29.55,1.5,SSE,4.6,-,N/A,,Overcast,150,2014-01-10 19:35:00
1:55 PM,33.4,32.9,98,29.54,1.2,SSE,3.5,-,N/A,,Overcast,150,2014-01-10 19:55:00
2:15 PM,33.6,32.9,97,29.53,1.0,Calm,Calm,-,N/A,,Overcast,0,2014-01-10 20:15:00
2:35 PM,33.8,32.9,96,29.52,0.8,Calm,Calm,-,N/A,,Overcast,0,2014-01-10 20:35:00
2:55 PM,33.8,33.1,97,29.52,0.5,Calm,Calm,-,N/A,Fog,Fog,0,2014-01-10 20:55:00
3:15 PM,33.8,32.9,96,29.53,0.5,Calm,Calm,-,N/A,Fog,Fog,0,2014-01-10 21:15:00
3:35 PM,33.8,32.9,96,29.52,0.2,Calm,Calm,-,N/A,Fog,Fog,0,2014-01-10 21:35:00
3:55 PM,33.4,32.9,98,29.52,0.2,Calm,Calm,-,N/A,Fog,Fog,0,2014-01-10 21:55:00
4:15 PM,33.4,32.9,98,29.52,0.2,Calm,Calm,-,N/A,Fog,Fog,0,2014-01-10 22:15:00
4:35 PM,33.3,32.5,97,29.52,0.2,Calm,Calm,-,N/A,Fog,Fog,0,2014-01-10 22:35:00
4:55 PM,33.1,32.4,97,29.52,0.2,WNW,4.6,-,N/A,Fog,Fog,300,2014-01-10 22:55:00
5:15 PM,33.1,32.4,97,29.52,0.5,Calm,Calm,-,N/A,Fog,Fog,0,2014-01-10 23:15:00
5:35 PM,32.9,32.2,97,29.53,0.2,Calm,Calm,-,N/A,Fog,Fog,0,2014-01-10 23:35:00
5:55 PM,32.9,32.2,97,29.53,0.5,WNW,3.5,-,N/A,Fog,Fog,290,2014-01-10 23:55:00
6:15 PM,32.9,32.0,96,29.53,0.5,Calm,Calm,-,N/A,Fog,Fog,0,2014-01-11 00:15:00
6:35 PM,32.9,32.0,96,29.53,0.5,West,3.5,-,N/A,Fog,Fog,270,2014-01-11 00:35:00
6:55 PM,32.9,32.0,96,29.53,0.5,Calm,Calm,-,N/A,Fog,Fog,0,2014-01-11 00:55:00
7:15 PM,32.4,32.0,99,29.54,0.5,WNW,4.6,-,N/A,Fog,Fog,300,2014-01-11 01:15:00
7:35 PM,32.4,32.0,99,29.54,0.8,WNW,4.6,-,N/A,,Overcast,290,2014-01-11 01:35:00
7:55 PM,32.2,32.0,99,29.54,1.0,WNW,5.8,-,N/A,,Overcast,290,2014-01-11 01:55:00
8:15 PM,32.0,32.0,100,29.54,1.5,WNW,5.8,-,N/A,,Overcast,290,2014-01-11 02:15:00
8:35 PM,32.0,32.0,100,29.54,1.8,WNW,6.9,-,N/A,,Overcast,290,2014-01-11 02:35:00
8:55 PM,32.0,32.0,100,29.54,2.5,WNW,8.1,-,N/A,,Overcast,290,2014-01-11 02:55:00
9:15 PM,32.0,31.8,99,29.54,4.0,WNW,6.9,-,N/A,,Overcast,290,2014-01-11 03:15:00
9:35 PM,32.0,31.8,99,29.55,4.0,West,5.8,-,N/A,,Overcast,280,2014-01-11 03:35:00
9:55 PM,32.0,31.8,99,29.56,4.0,West,6.9,-,N/A,,Overcast,270,2014-01-11 03:55:00
10:15 PM,32.0,31.6,99,29.56,5.0,West,6.9,-,N/A,,Overcast,270,2014-01-11 04:15:00
10:35 PM,32.0,31.8,99,29.56,5.0,West,5.8,-,N/A,,Overcast,270,2014-01-11 04:35:00
10:55 PM,32.0,31.6,99,29.56,5.0,West,5.8,-,N/A,,Overcast,270,2014-01-11 04:55:00
11:15 PM,32.0,31.6,99,29.55,5.0,West,6.9,-,N/A,,Overcast,270,2014-01-11 05:15:00
11:35 PM,32.0,31.6,99,29.55,7.0,West,5.8,-,N/A,,Overcast,270,2014-01-11 05:35:00
11:55 PM,32.0,31.5,98,29.55,7.0,West,5.8,-,N/A,,Overcast,270,2014-01-11 05:55:00